createdAt,value
2018-12-11T00:00:38.480Z,3.63
2018-12-11T00:03:09.824Z,3.80
2018-12-11T00:05:41.147Z,3.83
2018-12-11T00:08:10.559Z,4.00
2018-12-11T00:10:39.755Z,3.57
2018-12-11T00:13:09.172Z,4.30
2018-12-11T00:15:38.467Z,3.90
2018-12-11T00:18:07.878Z,3.63
2018-12-11T00:20:37.152Z,3.87
2018-12-11T00:23:06.548Z,3.70
2018-12-11T00:25:35.844Z,4.10
2018-12-11T00:28:05.248Z,3.90
2018-12-11T00:30:34.453Z,3.90
2018-12-11T00:33:03.773Z,3.83
2018-12-11T00:35:33.069Z,3.73
2018-12-11T00:38:02.452Z,4.00
2018-12-11T00:40:31.756Z,3.40
2018-12-11T00:43:01.057Z,4.03
2018-12-11T00:45:30.357Z,3.62
2018-12-11T00:47:59.686Z,3.67
2018-12-11T00:50:28.957Z,3.80
2018-12-11T00:52:58.329Z,4.27
2018-12-11T00:55:27.693Z,3.87
2018-12-11T00:57:56.988Z,3.80
2018-12-11T01:00:26.397Z,4.20
2018-12-11T01:02:55.776Z,3.87
2018-12-11T01:05:25.080Z,3.50
2018-12-11T01:07:54.432Z,3.53
2018-12-11T01:10:23.701Z,3.90
2018-12-11T01:12:52.983Z,4.20
2018-12-11T01:15:22.228Z,3.70
2018-12-11T01:17:51.563Z,3.90
2018-12-11T01:20:20.792Z,3.83
2018-12-11T01:22:50.149Z,3.73
2018-12-11T01:25:19.393Z,3.77
2018-12-11T01:27:48.691Z,3.27
2018-12-11T01:30:18.063Z,3.80
2018-12-11T01:32:47.378Z,3.40
2018-12-11T01:35:16.630Z,4.13
2018-12-11T01:37:46.069Z,3.90
2018-12-11T01:40:15.297Z,3.67
2018-12-11T01:42:44.584Z,4.07
2018-12-11T01:45:13.817Z,3.40
2018-12-11T01:47:43.248Z,3.70
2018-12-11T01:50:12.505Z,3.45
2018-12-11T01:52:41.974Z,3.73
2018-12-11T01:55:11.235Z,3.93
2018-12-11T01:57:40.520Z,3.50
2018-12-11T02:00:10.026Z,3.40
2018-12-11T02:02:41.140Z,3.60
2018-12-11T02:05:10.335Z,4.28
2018-12-11T02:07:39.588Z,3.52
2018-12-11T02:10:08.805Z,4.17
2018-12-11T02:12:38.000Z,3.43
2018-12-11T02:15:07.248Z,4.10
2018-12-11T02:17:36.519Z,3.70
2018-12-11T02:20:07.048Z,3.80
2018-12-11T02:22:36.304Z,3.83
2018-12-11T02:25:05.933Z,3.63
2018-12-11T02:27:35.287Z,3.60
2018-12-11T02:30:05.202Z,3.70
2018-12-11T02:32:34.766Z,3.80
2018-12-11T02:35:04.031Z,3.53
2018-12-11T02:37:33.415Z,3.50
2018-12-11T02:40:02.778Z,3.70
2018-12-11T02:42:32.042Z,3.50
2018-12-11T02:45:01.343Z,3.83
2018-12-11T02:47:30.793Z,3.90
2018-12-11T02:50:00.146Z,3.67
2018-12-11T02:52:29.427Z,3.77
2018-12-11T02:54:58.688Z,3.50
2018-12-11T02:57:28.029Z,3.40
2018-12-11T02:59:57.296Z,3.80
2018-12-11T03:02:26.544Z,3.73
2018-12-11T03:04:55.818Z,3.73
2018-12-11T03:07:25.390Z,3.60
2018-12-11T03:09:54.711Z,3.30
2018-12-11T03:12:24.104Z,4.10
2018-12-11T03:14:53.405Z,3.85
2018-12-11T03:17:22.732Z,3.70
2018-12-11T03:19:52.118Z,3.53
2018-12-11T03:22:21.375Z,3.47
2018-12-11T03:24:50.795Z,3.50
2018-12-11T03:27:20.165Z,3.47
2018-12-11T03:29:49.565Z,3.83
2018-12-11T03:32:18.830Z,3.93
2018-12-11T03:34:48.123Z,4.07
2018-12-11T03:37:17.532Z,3.63
2018-12-11T03:39:48.902Z,3.60
2018-12-11T03:42:18.274Z,3.27
2018-12-11T03:44:47.574Z,3.80
2018-12-11T03:47:16.936Z,3.73
2018-12-11T03:49:46.233Z,3.17
2018-12-11T03:52:21.455Z,3.30
2018-12-11T03:54:46.942Z,3.67
2018-12-11T03:57:16.205Z,4.03
2018-12-11T03:59:45.595Z,3.80
2018-12-11T04:02:14.867Z,3.87
2018-12-11T04:04:44.143Z,3.73
2018-12-11T04:07:13.387Z,3.33
2018-12-11T04:09:42.848Z,3.87
2018-12-11T04:12:12.380Z,3.87
2018-12-11T04:14:41.847Z,3.73
2018-12-11T04:17:11.847Z,3.47
2018-12-11T04:19:41.400Z,3.30
2018-12-11T04:22:10.724Z,3.80
2018-12-11T04:24:40.071Z,3.30
2018-12-11T04:27:12.037Z,3.40
2018-12-11T04:29:42.353Z,3.67
2018-12-11T04:32:11.761Z,3.47
2018-12-11T04:34:41.074Z,3.90
2018-12-11T04:37:10.413Z,3.33
2018-12-11T04:39:39.775Z,3.60
2018-12-11T04:42:09.181Z,3.70
2018-12-11T04:44:39.026Z,3.47
2018-12-11T04:47:08.388Z,3.42
2018-12-11T04:49:37.730Z,3.40
2018-12-11T04:52:07.124Z,2.80
2018-12-11T04:54:36.427Z,3.37
2018-12-11T04:57:05.769Z,3.50
2018-12-11T04:59:35.098Z,3.77
2018-12-11T05:02:04.425Z,3.23
2018-12-11T05:04:33.723Z,3.10
2018-12-11T05:07:03.185Z,3.23
2018-12-11T05:09:32.457Z,3.20
2018-12-11T05:12:01.814Z,6.27
2018-12-11T05:14:31.177Z,6.83
2018-12-11T05:17:00.514Z,5.93
2018-12-11T05:19:29.838Z,6.40
2018-12-11T05:21:59.148Z,6.27
2018-12-11T05:24:28.403Z,6.20
2018-12-11T05:26:57.719Z,6.67
2018-12-11T05:29:26.651Z,6.90
2018-12-11T05:31:55.506Z,6.83
2018-12-11T05:34:24.836Z,6.90
2018-12-11T05:36:54.372Z,6.43
2018-12-11T05:39:24.624Z,7.03
2018-12-11T05:41:53.962Z,7.20
2018-12-11T05:44:23.267Z,7.20
2018-12-11T05:46:52.552Z,7.13
2018-12-11T05:49:21.893Z,6.87
2018-12-11T05:51:51.126Z,6.80
2018-12-11T05:54:20.365Z,6.90
2018-12-11T05:56:49.653Z,7.47
2018-12-11T05:59:18.883Z,6.80
2018-12-11T06:01:48.071Z,6.67
2018-12-11T06:04:17.347Z,7.80
2018-12-11T06:06:46.576Z,7.30
2018-12-11T06:09:15.829Z,5.23
2018-12-11T06:11:45.128Z,5.47
2018-12-11T06:14:14.691Z,4.90
2018-12-11T06:16:44.353Z,4.83
2018-12-11T06:19:13.771Z,4.47
2018-12-11T06:21:43.247Z,4.40
2018-12-11T06:24:12.647Z,4.83
2018-12-11T06:26:41.882Z,5.00
2018-12-11T06:29:11.192Z,4.30
2018-12-11T06:31:40.651Z,4.87
2018-12-11T06:34:11.044Z,4.73
2018-12-11T06:36:40.518Z,4.40
2018-12-11T06:39:09.849Z,4.10
2018-12-11T06:41:39.185Z,4.67
2018-12-11T06:44:08.445Z,4.50
2018-12-11T06:46:37.771Z,4.17
2018-12-11T06:49:07.059Z,5.00
2018-12-11T06:51:36.354Z,4.40
2018-12-11T06:54:06.420Z,4.57
2018-12-11T06:56:35.824Z,4.47
2018-12-11T06:59:05.232Z,4.03
2018-12-11T07:01:34.748Z,4.80
2018-12-11T07:04:04.066Z,4.20
2018-12-11T07:06:33.597Z,3.77
2018-12-11T07:09:03.148Z,4.63
2018-12-11T07:11:34.499Z,4.93
2018-12-11T07:14:03.989Z,4.70
2018-12-11T07:16:33.268Z,4.40
2018-12-11T07:19:02.844Z,5.00
2018-12-11T07:21:32.376Z,4.50
2018-12-11T07:24:02.349Z,4.43
2018-12-11T07:26:33.735Z,5.37
2018-12-11T07:29:04.335Z,4.97
2018-12-11T07:31:34.348Z,5.90
2018-12-11T07:34:03.959Z,5.83
2018-12-11T07:36:34.021Z,6.10
2018-12-11T07:39:04.758Z,5.43
2018-12-11T07:41:38.275Z,6.40
2018-12-11T07:44:09.418Z,5.83
2018-12-11T07:46:39.846Z,5.60
2018-12-11T07:49:09.115Z,5.40
2018-12-11T07:51:38.433Z,5.03
2018-12-11T07:54:07.887Z,5.47
2018-12-11T07:56:37.358Z,5.60
2018-12-11T07:59:06.739Z,5.10
2018-12-11T08:01:36.980Z,5.37
2018-12-11T08:04:08.477Z,5.13
2018-12-11T08:06:38.038Z,5.60
2018-12-11T08:09:09.183Z,5.40
2018-12-11T08:11:41.939Z,5.10
2018-12-11T08:14:12.982Z,4.73
2018-12-11T08:16:43.105Z,4.80
2018-12-11T08:19:13.067Z,5.50
2018-12-11T08:21:42.526Z,6.47
2018-12-11T08:24:12.671Z,6.67
2018-12-11T08:29:25.628Z,6.73
2018-12-11T08:31:56.238Z,5.73
2018-12-11T08:34:27.019Z,5.90
2018-12-11T08:36:56.454Z,6.00
2018-12-11T08:39:30.797Z,6.60
2018-12-11T08:42:00.387Z,7.17
2018-12-11T08:44:29.816Z,6.15
2018-12-11T08:46:59.319Z,6.07
2018-12-11T08:49:30.269Z,7.22
2018-12-11T08:51:59.673Z,6.20
2018-12-11T08:54:29.759Z,6.08
2018-12-11T08:56:59.183Z,8.03
2018-12-11T08:59:28.614Z,6.17
2018-12-11T09:02:08.480Z,6.90
2018-12-11T09:04:38.688Z,7.12
2018-12-11T09:07:31.889Z,6.10
2018-12-11T09:10:03.797Z,6.62
2018-12-11T09:12:40.171Z,7.78
2018-12-11T09:15:10.572Z,7.85
2018-12-11T09:17:43.591Z,7.20
2018-12-11T09:20:13.174Z,8.05
2018-12-11T09:22:53.549Z,6.53
2018-12-11T09:25:23.682Z,6.50
2018-12-11T09:27:55.919Z,6.10
2018-12-11T09:30:35.571Z,6.97
2018-12-11T09:33:07.863Z,5.83
2018-12-11T09:35:37.361Z,6.50
2018-12-11T09:38:07.759Z,5.55
2018-12-11T09:40:37.632Z,5.20
2018-12-11T09:43:16.609Z,5.85
2018-12-11T09:45:54.815Z,5.67
2018-12-11T09:48:24.401Z,5.90
2018-12-11T09:50:55.898Z,5.97
2018-12-11T09:53:28.659Z,5.72
2018-12-11T09:55:58.397Z,5.50
2018-12-11T09:58:28.364Z,5.42
2018-12-11T10:00:57.760Z,5.55
2018-12-11T10:03:29.827Z,5.95
2018-12-11T10:06:08.961Z,5.78
2018-12-11T10:08:39.286Z,6.08
2018-12-11T10:11:08.810Z,10.05
2018-12-11T10:13:38.430Z,9.90
2018-12-11T10:16:08.299Z,10.40
2018-12-11T10:21:20.676Z,11.22
2018-12-11T10:23:50.624Z,9.50
2018-12-11T10:26:20.009Z,9.95
2018-12-11T10:28:51.019Z,8.93
2018-12-11T10:31:22.166Z,8.30
2018-12-11T10:33:51.670Z,8.80
2018-12-11T10:36:21.706Z,8.93
2018-12-11T10:38:52.040Z,7.50
2018-12-11T10:41:21.585Z,8.00
2018-12-11T10:43:51.074Z,7.28
2018-12-11T10:46:21.357Z,8.75
2018-12-11T10:48:50.984Z,7.62
2018-12-11T10:51:20.761Z,6.78
2018-12-11T10:53:50.270Z,7.60
2018-12-11T10:56:19.914Z,7.50
2018-12-11T10:58:49.282Z,7.00
2018-12-11T11:01:19.542Z,7.20
2018-12-11T11:03:50.496Z,22.73
2018-12-11T11:06:26.077Z,11.95
2018-12-11T11:09:07.207Z,10.35
2018-12-11T11:11:39.932Z,9.35
2018-12-11T11:14:11.976Z,9.87
2018-12-11T11:16:43.099Z,9.68
2018-12-11T11:19:12.930Z,8.75
2018-12-11T11:25:11.508Z,8.38
2018-12-11T11:27:41.715Z,8.95
2018-12-11T11:30:14.383Z,8.20
2018-12-11T11:32:46.520Z,7.78
2018-12-11T11:35:16.301Z,7.65
2018-12-11T11:41:16.306Z,8.10
2018-12-11T11:43:54.311Z,7.92
2018-12-11T11:46:23.733Z,6.85
2018-12-11T11:48:54.311Z,7.87
2018-12-11T12:03:19.530Z,5.55
2018-12-11T12:08:30.289Z,4.55
2018-12-11T12:11:08.353Z,4.72
2018-12-11T12:13:48.788Z,5.10
2018-12-11T12:16:18.284Z,4.85
2018-12-11T12:18:48.967Z,4.50
2018-12-11T12:21:18.413Z,4.07
2018-12-11T12:23:48.650Z,5.20
2018-12-11T12:26:18.343Z,4.37
2018-12-11T12:28:47.778Z,4.33
2018-12-11T12:31:18.804Z,4.63
2018-12-11T12:33:48.447Z,5.87
2018-12-11T12:36:18.748Z,5.10
2018-12-11T12:38:48.302Z,6.43
2018-12-11T12:41:18.083Z,5.10
2018-12-11T12:43:48.148Z,7.83
2018-12-11T12:46:18.291Z,7.47
2018-12-11T12:48:48.112Z,7.10
2018-12-11T12:51:17.583Z,6.73
2018-12-11T12:53:47.550Z,7.47
2018-12-11T12:56:17.652Z,7.13
2018-12-11T12:58:47.826Z,7.80
2018-12-11T13:01:19.303Z,6.80
2018-12-11T13:07:30.743Z,6.10
2018-12-11T13:10:00.826Z,6.60
2018-12-11T13:12:34.165Z,6.10
2018-12-11T13:15:07.189Z,7.10
2018-12-11T13:17:37.154Z,6.33
2018-12-11T13:20:07.495Z,6.60
2018-12-11T13:22:43.774Z,6.87
2018-12-11T13:25:13.668Z,6.30
2018-12-11T13:27:43.284Z,5.90
2018-12-11T13:30:15.663Z,5.30
2018-12-11T13:32:45.255Z,5.60
2018-12-11T13:35:15.331Z,6.10
2018-12-11T13:37:44.869Z,6.00
2018-12-11T13:40:14.387Z,5.87
2018-12-11T13:42:44.013Z,5.83
2018-12-11T13:45:13.503Z,6.03
2018-12-11T13:47:43.024Z,5.70
2018-12-11T13:50:12.627Z,5.60
2018-12-11T13:52:42.031Z,5.00
2018-12-11T13:55:11.404Z,6.20
2018-12-11T13:57:43.792Z,5.73
2018-12-11T14:00:13.508Z,5.57
2018-12-11T14:06:01.273Z,6.70
2018-12-11T14:11:45.625Z,5.20
2018-12-11T14:14:24.573Z,5.60
2018-12-11T14:22:56.381Z,5.00
2018-12-11T14:25:40.591Z,5.50
2018-12-11T14:28:12.075Z,4.80
2018-12-11T14:30:43.943Z,4.87
2018-12-11T14:35:52.690Z,5.50
2018-12-11T14:38:22.376Z,3.90
2018-12-11T14:43:35.698Z,4.23
2018-12-11T14:49:04.312Z,5.00
2018-12-11T14:51:34.955Z,4.40
2018-12-11T14:54:16.890Z,4.20
2018-12-11T14:57:03.423Z,3.87
2018-12-11T14:59:32.976Z,4.62
2018-12-11T15:13:31.001Z,4.73
2018-12-11T15:16:04.156Z,3.77
2018-12-11T15:18:41.074Z,3.87
2018-12-11T15:21:10.880Z,3.80
2018-12-11T15:23:41.954Z,3.75
2018-12-11T15:26:11.956Z,3.87
2018-12-11T15:28:41.319Z,4.17
2018-12-11T15:40:14.769Z,3.97
2018-12-11T15:49:25.335Z,3.98
2018-12-11T15:54:34.611Z,3.40
2018-12-11T15:57:11.743Z,3.65
2018-12-11T15:59:40.959Z,4.05
2018-12-11T16:02:10.676Z,4.17
2018-12-11T16:10:36.419Z,3.80
2018-12-11T16:13:05.966Z,4.15
2018-12-11T16:15:35.790Z,4.27
2018-12-11T16:18:05.273Z,4.08
2018-12-11T16:20:34.546Z,3.98
2018-12-11T16:23:03.999Z,3.90
2018-12-11T16:25:33.277Z,4.28
2018-12-11T16:28:03.234Z,4.03
2018-12-11T16:30:32.512Z,4.27
2018-12-11T16:33:02.002Z,4.10
2018-12-11T16:35:31.405Z,4.28
2018-12-11T16:38:00.906Z,4.10
2018-12-11T16:40:30.346Z,4.40
2018-12-11T16:42:59.738Z,3.67
2018-12-11T16:45:29.429Z,4.30
2018-12-11T16:47:58.840Z,4.60
2018-12-11T16:50:30.316Z,4.57
2018-12-11T16:52:59.719Z,4.67
2018-12-11T16:55:29.149Z,5.10
2018-12-11T16:57:58.536Z,5.07
2018-12-11T17:00:27.891Z,5.50
2018-12-11T17:02:57.275Z,5.12
2018-12-11T17:05:26.705Z,5.97
2018-12-11T17:07:56.112Z,5.73
2018-12-11T17:10:25.539Z,5.78
2018-12-11T17:12:55.061Z,6.22
2018-12-11T17:15:26.617Z,7.03
2018-12-11T17:17:56.002Z,6.17
2018-12-11T17:20:25.417Z,6.43
2018-12-11T17:22:54.768Z,6.67
2018-12-11T17:25:24.327Z,6.80
2018-12-11T17:27:53.890Z,7.60
2018-12-11T17:30:23.267Z,7.92
2018-12-11T17:32:52.924Z,8.27
2018-12-11T17:35:22.175Z,8.68
2018-12-11T17:37:51.680Z,8.07
2018-12-11T17:40:21.082Z,8.37
2018-12-11T17:42:50.897Z,7.97
2018-12-11T17:45:20.492Z,8.60
2018-12-11T17:47:49.977Z,9.33
2018-12-11T17:50:19.314Z,8.90
2018-12-11T17:52:48.648Z,9.35
2018-12-11T17:55:18.217Z,9.17
2018-12-11T17:57:47.632Z,9.47
2018-12-11T18:00:17.264Z,9.57
2018-12-11T18:02:46.916Z,10.20
2018-12-11T18:05:16.405Z,10.73
2018-12-11T18:07:45.771Z,11.00
2018-12-11T18:10:15.404Z,10.20
2018-12-11T18:12:46.033Z,10.77
2018-12-11T18:15:15.395Z,11.73
2018-12-11T18:17:48.047Z,11.43
2018-12-11T18:20:17.576Z,12.33
2018-12-11T18:22:46.905Z,12.17
2018-12-11T18:25:16.215Z,12.40
2018-12-11T18:27:46.010Z,13.05
2018-12-11T18:30:15.909Z,13.22
2018-12-11T18:32:45.483Z,12.93
2018-12-11T18:35:17.190Z,13.30
2018-12-11T18:37:47.009Z,13.47
2018-12-11T18:40:16.728Z,14.67
2018-12-11T18:42:46.419Z,13.75
2018-12-11T18:45:15.950Z,15.13
2018-12-11T18:47:49.860Z,15.73
2018-12-11T18:50:21.333Z,15.72
2018-12-11T18:52:49.192Z,16.63
2018-12-11T18:55:18.585Z,18.03
2018-12-11T18:57:48.268Z,17.62
2018-12-11T19:00:17.871Z,17.30
2018-12-11T19:02:47.904Z,18.73
2018-12-11T19:05:17.435Z,19.23
2018-12-11T19:07:55.283Z,26.95
2018-12-11T19:10:24.644Z,27.48
2018-12-11T19:12:54.101Z,25.83
2018-12-11T19:15:23.475Z,24.60
2018-12-11T19:17:53.020Z,24.53
2018-12-11T19:20:22.608Z,22.33
2018-12-11T19:22:54.364Z,22.10
2018-12-11T19:25:23.797Z,21.83
2018-12-11T19:27:53.183Z,22.10
2018-12-11T19:30:22.678Z,20.73
2018-12-11T19:32:54.141Z,21.42
2018-12-11T19:35:24.281Z,22.40
2018-12-11T19:37:55.748Z,21.57
2018-12-11T19:40:25.623Z,21.35
2018-12-11T19:42:55.124Z,21.53
2018-12-11T19:45:24.512Z,21.80
2018-12-11T19:47:53.889Z,20.47
2018-12-11T19:50:23.327Z,20.73
2018-12-11T19:52:52.760Z,21.47
2018-12-11T19:55:22.200Z,20.87
2018-12-11T19:57:51.557Z,22.32
2018-12-11T20:00:20.874Z,20.47
2018-12-11T20:02:50.465Z,19.10
2018-12-11T20:05:19.780Z,20.50
2018-12-11T20:07:49.152Z,20.73
2018-12-11T20:10:20.490Z,21.27
2018-12-11T20:12:49.954Z,19.43
2018-12-11T20:15:19.423Z,20.63
2018-12-11T20:17:48.871Z,19.83
2018-12-11T20:20:27.447Z,19.00
2018-12-11T20:22:56.840Z,20.13
2018-12-11T20:25:26.317Z,19.37
2018-12-11T20:27:55.703Z,20.23
2018-12-11T20:30:26.108Z,18.67
2018-12-11T20:32:55.448Z,21.23
2018-12-11T20:35:24.895Z,19.40
2018-12-11T20:37:54.444Z,19.33
2018-12-11T20:40:24.433Z,18.93
2018-12-11T20:42:53.731Z,22.33
2018-12-11T20:45:23.079Z,22.90
2018-12-11T20:47:52.424Z,21.43
2018-12-11T20:50:21.705Z,23.23
2018-12-11T20:52:51.002Z,26.60
2018-12-11T20:55:21.317Z,26.37
2018-12-11T20:57:50.522Z,27.77
2018-12-11T21:00:19.784Z,27.70
2018-12-11T21:02:49.068Z,29.60
2018-12-11T21:05:18.423Z,31.25
2018-12-11T21:07:47.843Z,30.60
2018-12-11T21:10:17.059Z,32.83
2018-12-11T21:12:46.366Z,33.93
2018-12-11T21:15:15.687Z,34.13
2018-12-11T21:17:45.118Z,32.73
2018-12-11T21:20:14.492Z,34.73
2018-12-11T21:22:43.855Z,33.47
2018-12-11T21:25:13.086Z,34.13
2018-12-11T21:27:42.392Z,35.33
2018-12-11T21:30:11.684Z,35.17
2018-12-11T21:32:41.021Z,35.53
2018-12-11T21:35:10.319Z,35.47
2018-12-11T21:37:39.777Z,34.13
2018-12-11T21:40:09.211Z,35.30
2018-12-11T21:42:38.495Z,34.83
2018-12-11T21:45:07.806Z,34.53
2018-12-11T21:47:37.299Z,34.97
2018-12-11T21:50:08.073Z,35.73
2018-12-11T21:52:37.411Z,33.93
2018-12-11T21:55:07.446Z,35.10
2018-12-11T21:57:36.733Z,35.07
2018-12-11T22:00:08.653Z,35.67
2018-12-11T22:03:19.047Z,38.10
2018-12-11T22:14:59.561Z,37.63
2018-12-11T22:17:32.117Z,36.90
2018-12-11T22:20:09.917Z,36.63
2018-12-11T22:22:39.283Z,37.40
2018-12-11T22:25:21.597Z,37.57
2018-12-11T22:27:50.952Z,37.20
2018-12-11T22:30:20.279Z,37.47
2018-12-11T22:32:49.598Z,37.63
2018-12-11T22:35:18.852Z,38.60
2018-12-11T22:37:48.252Z,38.67
2018-12-11T22:40:17.460Z,38.47
2018-12-11T22:42:46.841Z,36.97
2018-12-11T22:45:16.092Z,37.93
2018-12-11T22:47:45.515Z,38.88
2018-12-11T22:50:14.708Z,37.77
2018-12-11T22:52:44.065Z,38.93
2018-12-11T22:55:13.317Z,39.13
2018-12-11T22:57:42.640Z,37.78
2018-12-11T23:00:12.994Z,38.80
2018-12-11T23:02:44.293Z,38.50
2018-12-11T23:05:17.255Z,38.23
2018-12-11T23:16:23.988Z,36.23
2018-12-11T23:18:53.510Z,35.07
2018-12-11T23:21:22.841Z,35.28
2018-12-11T23:23:52.277Z,34.93
2018-12-11T23:26:22.734Z,35.03
2018-12-11T23:28:52.043Z,33.13
2018-12-11T23:31:21.437Z,33.42
2018-12-11T23:33:52.770Z,32.77
2018-12-11T23:36:22.160Z,32.30
2018-12-11T23:38:51.553Z,32.50
2018-12-11T23:41:21.011Z,32.70
2018-12-11T23:43:50.465Z,32.05
2018-12-11T23:46:19.835Z,31.93
2018-12-11T23:48:49.243Z,30.60
2018-12-11T23:51:18.679Z,32.75
2018-12-11T23:53:48.200Z,30.27
2018-12-11T23:56:17.594Z,31.30
2018-12-11T23:58:46.991Z,30.63
